Time;durP1;ratioP1;P1;durP2;ratioP2;P2;SDS_P1;SDS_P2;PMS_P1;PMS_P2;Temp;Humidity;BMP_temperature;BMP_pressure;BME280_temperature;BME280_humidity;BME280_pressure;Samples;Min_cycle;Max_cycle;Signal;HPM_P1;HPM_P2
2021/04/12 00:01:11;;;;;;;2.90;2.70;;;;;;;5.80;74.18;99093.84;5111040;27;41391;-73
2021/04/12 00:04:00;;;;;;;2.90;2.70;;;;;;;5.83;74.54;99101.59;5108858;27;43443;-73
2021/04/12 00:06:32;;;;;;;3.00;2.80;;;;;;;5.78;74.66;99096.53;5111460;27;42103;-73
2021/04/12 00:09:11;;;;;;;5.80;2.67;;;;;;;5.77;74.49;99102.69;5104850;27;39884;-75
2021/04/12 00:11:44;;;;;;;2.70;2.50;;;;;;;5.73;74.19;99087.09;5108922;28;42291;-73
2021/04/12 00:14:19;;;;;;;3.70;2.83;;;;;;;5.72;74.47;99080.13;5108452;27;42488;-73
2021/04/12 00:16:53;;;;;;;2.77;2.57;;;;;;;5.72;74.57;99090.63;5110267;27;41936;-73
2021/04/12 00:19:26;;;;;;;3.03;2.83;;;;;;;5.74;74.43;99101.94;5103326;28;39776;-74
2021/04/12 00:22:02;;;;;;;3.60;3.30;;;;;;;5.74;74.52;99101.94;5091872;28;42105;-74
2021/04/12 00:24:36;;;;;;;3.17;2.97;;;;;;;5.74;74.70;99109.84;5109525;27;45730;-74
2021/04/12 00:27:07;;;;;;;3.47;3.23;;;;;;;5.70;74.60;99110.84;5106563;28;44209;-74
2021/04/12 00:29:44;;;;;;;4.03;3.47;;;;;;;5.73;74.59;99116.00;5142383;27;39630;-74
2021/04/12 00:32:16;;;;;;;4.07;3.40;;;;;;;5.73;74.90;99119.50;5110661;27;45728;-73
2021/04/12 00:34:55;;;;;;;3.77;3.10;;;;;;;5.65;74.66;99115.44;5110252;27;42794;-73
2021/04/12 00:37:28;;;;;;;2.90;2.70;;;;;;;5.73;74.71;99122.13;5107489;28;41317;-73
2021/04/12 00:40:02;;;;;;;4.60;4.20;;;;;;;5.71;74.76;99116.06;5109941;27;40689;-73
2021/04/12 00:42:49;;;;;;;5.30;4.10;;;;;;;5.72;74.59;99116.91;5102905;28;42223;-73
2021/04/12 00:45:30;;;;;;;3.40;3.17;;;;;;;5.73;74.75;99119.50;5108254;28;42153;-73
2021/04/12 00:48:16;;;;;;;3.67;3.37;;;;;;;5.73;74.69;99121.25;5109170;27;42513;-73
2021/04/12 00:50:50;;;;;;;5.00;4.43;;;;;;;5.72;75.03;99122.16;5124864;27;39498;-73
2021/04/12 00:53:37;;;;;;;4.43;4.03;;;;;;;5.72;75.05;99120.41;5092334;28;42108;-73
2021/04/12 00:56:11;;;;;;;4.93;4.43;;;;;;;5.64;75.34;99117.22;5091629;28;43862;-73
2021/04/12 00:58:55;;;;;;;4.30;4.00;;;;;;;5.65;75.24;99120.72;5102349;28;42511;-74
2021/04/12 01:01:54;;;;;;;5.47;4.73;;;;;;;5.64;75.22;99121.63;5107633;28;39567;-73
2021/04/12 01:04:39;;;;;;;5.60;4.83;;;;;;;5.61;74.90;99129.63;5065190;28;41311;-73
2021/04/12 01:07:51;;;;;;;5.67;4.57;;;;;;;5.58;75.11;99129.72;5103962;28;42785;-73
2021/04/12 01:10:40;;;;;;;5.10;4.70;;;;;;;5.57;75.34;99126.25;5106045;28;41148;-73
2021/04/12 01:13:44;;;;;;;5.40;4.90;;;;;;;5.56;75.33;99126.31;5108239;27;39829;-73
2021/04/12 01:16:23;;;;;;;5.67;4.70;;;;;;;5.50;75.39;99123.91;5104856;28;41479;-73
2021/04/12 01:19:01;;;;;;;5.80;5.20;;;;;;;5.53;75.26;99131.69;5103896;28;43521;-74
2021/04/12 01:22:04;;;;;;;5.47;4.97;;;;;;;5.51;75.66;99126.47;5109026;28;42684;-73
2021/04/12 01:25:00;;;;;;;5.27;4.87;;;;;;;5.49;75.56;99135.31;5108333;27;40619;-73
2021/04/12 01:28:25;;;;;;;5.33;4.90;;;;;;;5.49;75.47;99141.44;5071458;28;41479;-73
2021/04/12 01:31:40;;;;;;;6.13;5.60;;;;;;;5.46;76.00;99141.53;5105175;27;42781;-74
2021/04/12 01:34:48;;;;;;;5.17;4.77;;;;;;;5.48;75.65;99147.59;5108512;27;41949;-74
2021/04/12 01:37:50;;;;;;;5.70;4.90;;;;;;;5.47;75.43;99150.28;5108844;27;39891;-74
2021/04/12 01:40:47;;;;;;;5.97;5.33;;;;;;;5.45;75.46;99159.97;5105573;28;42065;-73
2021/04/12 01:43:23;;;;;;;6.50;5.40;;;;;;;5.45;75.29;99160.84;5091371;28;41880;-73
2021/04/12 01:46:01;;;;;;;6.57;5.97;;;;;;;5.46;75.51;99156.44;5105932;28;42659;-74
2021/04/12 01:48:54;;;;;;;6.90;6.30;;;;;;;5.37;75.92;99166.38;5100679;28;40754;-74
2021/04/12 01:51:39;;;;;;;7.63;6.70;;;;;;;5.37;75.87;99169.00;5107445;27;41352;-73
2021/04/12 01:54:45;;;;;;;8.77;6.50;;;;;;;5.41;75.84;99186.38;5106063;28;43019;-73
2021/04/12 01:57:24;;;;;;;7.57;6.87;;;;;;;5.40;75.59;99174.16;5102164;28;42140;-73
2021/04/12 02:00:12;;;;;;;8.07;7.20;;;;;;;5.45;75.56;99181.84;5107378;28;38896;-74
2021/04/12 02:03:02;;;;;;;6.33;5.73;;;;;;;5.46;75.59;99186.19;5107854;27;41535;-74
2021/04/12 02:05:38;;;;;;;7.97;7.17;;;;;;;5.41;75.20;99186.38;5107177;27;42809;-73
2021/04/12 02:08:18;;;;;;;8.57;7.67;;;;;;;5.45;75.55;99196.75;5108798;27;42890;-73
2021/04/12 02:10:57;;;;;;;7.57;6.87;;;;;;;5.45;75.18;99202.00;5108291;28;39763;-73
2021/04/12 02:13:51;;;;;;;8.33;7.37;;;;;;;5.44;75.52;99200.31;5107019;27;41453;-73
2021/04/12 02:16:30;;;;;;;9.03;8.13;;;;;;;5.43;75.42;99203.88;5108038;27;43082;-73
2021/04/12 02:19:38;;;;;;;8.93;7.80;;;;;;;5.41;75.36;99212.66;5105157;27;42812;-73
2021/04/12 02:22:18;;;;;;;8.00;7.30;;;;;;;5.37;75.56;99211.03;5084559;28;40669;-73
2021/04/12 02:24:58;;;;;;;8.13;7.33;;;;;;;5.37;75.71;99200.53;5105763;28;42155;-73
2021/04/12 02:27:32;;;;;;;8.70;7.73;;;;;;;5.34;75.88;99205.88;5105933;28;42526;-73
2021/04/12 02:30:09;;;;;;;8.03;7.20;;;;;;;5.36;75.98;99205.84;5106834;27;42014;-73
2021/04/12 02:32:57;;;;;;;8.07;7.27;;;;;;;5.36;75.92;99209.31;5090013;28;38864;-73
2021/04/12 02:35:36;;;;;;;7.03;6.23;;;;;;;5.35;76.05;99207.59;5106135;27;41602;-74
2021/04/12 02:38:15;;;;;;;8.50;7.70;;;;;;;5.36;76.01;99208.47;5102707;28;44127;-73
2021/04/12 02:41:03;;;;;;;7.77;6.97;;;;;;;5.37;76.12;99211.03;5104528;28;42865;-73
2021/04/12 02:43:48;;;;;;;8.00;7.20;;;;;;;5.36;75.81;99211.94;5107515;27;39583;-73
2021/04/12 02:46:29;;;;;;;10.37;7.33;;;;;;;5.37;75.72;99216.28;5102908;27;42527;-73
2021/04/12 02:49:01;;;;;;;8.37;7.53;;;;;;;5.37;75.99;99216.28;5108793;27;42298;-73
2021/04/12 02:51:39;;;;;;;7.30;6.70;;;;;;;5.36;76.05;99222.44;5107456;27;41793;-73
2021/04/12 02:54:46;;;;;;;7.57;6.77;;;;;;;5.39;75.93;99235.47;5105387;28;39924;-74
2021/04/12 02:57:49;;;;;;;9.43;6.80;;;;;;;5.37;75.63;99228.56;5087843;28;42129;-74
2021/04/12 03:00:26;;;;;;;8.57;6.67;;;;;;;5.33;75.96;99230.44;5098617;28;42945;-73
2021/04/12 03:03:11;;;;;;;8.03;7.00;;;;;;;5.36;75.88;99245.22;5087634;28;42096;-73
2021/04/12 03:05:53;;;;;;;6.47;5.93;;;;;;;5.37;75.72;99247.81;5107323;27;40403;-74
2021/04/12 03:08:54;;;;;;;7.63;6.77;;;;;;;5.38;75.71;99254.78;5108437;27;41354;-73
2021/04/12 03:11:48;;;;;;;7.17;6.57;;;;;;;5.38;75.63;99254.78;5107076;28;43441;-73
2021/04/12 03:14:57;;;;;;;6.93;6.33;;;;;;;5.38;75.65;99260.03;5108828;27;42984;-73
2021/04/12 03:17:53;;;;;;;7.10;6.37;;;;;;;5.36;75.91;99260.97;5108524;28;39897;-73
2021/04/12 03:20:45;;;;;;;8.23;7.20;;;;;;;5.35;76.04;99264.50;5108218;27;42236;-73
2021/04/12 03:23:29;;;;;;;7.30;6.60;;;;;;;5.37;76.16;99276.69;5107658;28;42731;-73
2021/04/12 03:26:02;;;;;;;7.13;6.43;;;;;;;5.39;76.00;99269.63;5109379;27;42062;-73
2021/04/12 03:28:51;;;;;;;8.23;7.43;;;;;;;5.39;75.98;99272.25;5108591;27;40400;-72
2021/04/12 03:31:28;;;;;;;7.40;6.70;;;;;;;5.37;75.81;99273.19;5107655;28;41664;-73
2021/04/12 03:34:15;;;;;;;6.97;6.37;;;;;;;5.38;75.85;99269.66;5090082;28;42780;-73
2021/04/12 03:37:12;;;;;;;6.90;6.37;;;;;;;5.42;75.45;99276.53;5088879;28;42193;-73
2021/04/12 03:39:47;;;;;;;7.73;6.67;;;;;;;5.41;75.67;99274.81;5086872;28;38994;-73
2021/04/12 03:42:45;;;;;;;7.20;6.53;;;;;;;5.44;75.66;99268.63;5101540;28;41612;-74
2021/04/12 03:45:21;;;;;;;8.47;7.67;;;;;;;5.43;76.01;99266.91;5072410;27;42663;-73
2021/04/12 03:48:21;;;;;;;8.13;7.23;;;;;;;5.40;75.87;99263.47;5108693;27;42277;-73
2021/04/12 03:51:17;;;;;;;8.03;7.23;;;;;;;5.37;75.94;99267.94;5106576;28;38911;-74
2021/04/12 03:54:00;;;;;;;10.23;8.03;;;;;;;5.40;76.36;99276.59;5108159;27;41375;-72
2021/04/12 03:56:53;;;;;;;7.57;6.87;;;;;;;5.41;76.27;99294.06;5107329;28;42730;-73
2021/04/12 03:59:33;;;;;;;7.83;6.97;;;;;;;5.34;76.03;99295.16;5107911;27;42272;-73
2021/04/12 04:02:18;;;;;;;8.80;7.70;;;;;;;5.39;76.17;99297.66;5106544;28;40685;-72
2021/04/12 04:05:12;;;;;;;7.80;7.10;;;;;;;5.39;76.43;99293.25;5108559;27;41864;-74
2021/04/12 04:07:54;;;;;;;10.43;8.27;;;;;;;5.39;76.30;99298.50;5086212;28;42737;-73
2021/04/12 04:10:53;;;;;;;7.87;7.07;;;;;;;5.40;75.99;99305.47;5087957;28;41914;-73
2021/04/12 04:13:33;;;;;;;8.20;7.30;;;;;;;5.39;76.23;99300.28;5086265;28;39805;-75
2021/04/12 04:16:24;;;;;;;8.03;7.33;;;;;;;5.37;76.04;99321.34;5130031;27;42167;-73
2021/04/12 04:18:58;;;;;;;7.83;7.00;;;;;;;5.39;75.95;99329.16;5144514;27;42963;-73
2021/04/12 04:22:00;;;;;;;7.80;7.10;;;;;;;5.40;75.76;99316.00;5111545;27;42186;-73
2021/04/12 04:24:58;;;;;;;8.67;7.50;;;;;;;5.39;75.84;99316.91;5093999;28;38656;-74
2021/04/12 04:28:07;;;;;;;7.27;6.57;;;;;;;5.40;75.92;99331.75;5109666;28;41841;-74
2021/04/12 04:30:50;;;;;;;8.53;6.87;;;;;;;5.34;75.76;99337.19;5109847;28;42695;-73
2021/04/12 04:33:35;;;;;;;7.23;6.53;;;;;;;5.31;75.72;99337.31;5108907;28;42235;-72
2021/04/12 04:36:20;;;;;;;7.67;6.90;;;;;;;5.31;75.65;99339.94;5124687;27;40618;-72
2021/04/12 04:39:07;;;;;;;7.97;7.17;;;;;;;5.31;75.71;99353.06;5109988;28;42070;-73
2021/04/12 04:42:37;;;;;;;6.10;5.50;;;;;;;5.34;75.58;99352.94;5108088;28;43496;-72
2021/04/12 04:45:17;;;;;;;8.60;6.50;;;;;;;5.33;75.67;99359.09;5019030;28;42928;-72
2021/04/12 04:48:20;;;;;;;6.77;6.17;;;;;;;5.34;75.38;99371.34;5105940;28;39495;-73
2021/04/12 04:51:23;;;;;;;6.80;6.13;;;;;;;5.35;75.29;99370.44;5108388;28;42385;-72
2021/04/12 04:54:16;;;;;;;6.83;6.23;;;;;;;5.39;75.21;99382.56;5105687;28;43076;-72
2021/04/12 04:57:00;;;;;;;7.00;5.87;;;;;;;5.44;74.65;99385.00;5109869;28;42862;-73
2021/04/12 04:59:55;;;;;;;8.23;5.63;;;;;;;5.49;74.38;99383.09;5111016;27;39990;-73
2021/04/12 05:02:56;;;;;;;5.80;5.27;;;;;;;5.54;74.43;99390.84;5109701;27;42414;-75
2021/04/12 05:05:47;;;;;;;6.33;4.97;;;;;;;5.52;73.67;99403.16;5092465;28;43445;-73
2021/04/12 05:08:31;;;;;;;6.43;5.73;;;;;;;5.46;73.79;99404.22;5106681;28;42897;-73
2021/04/12 05:11:24;;;;;;;6.17;5.63;;;;;;;5.43;73.72;99406.09;5105251;28;38420;-73
2021/04/12 05:14:13;;;;;;;6.30;5.43;;;;;;;5.48;73.76;99431.28;5108941;27;41530;-72
2021/04/12 05:16:53;;;;;;;7.73;4.90;;;;;;;5.48;73.71;99438.31;5107358;28;42303;-73
2021/04/12 05:19:45;;;;;;;6.50;4.97;;;;;;;5.48;73.74;99448.81;5141627;27;42585;-73
2021/04/12 05:23:00;;;;;;;7.40;6.17;;;;;;;5.48;73.84;99469.84;5106499;27;39953;-73
2021/04/12 05:25:43;;;;;;;5.53;5.03;;;;;;;5.50;73.78;99462.78;5090870;28;42405;-73
2021/04/12 05:28:26;;;;;;;6.53;5.80;;;;;;;5.53;73.48;99462.69;5094780;27;41727;-74
2021/04/12 05:31:13;;;;;;;5.53;4.67;;;;;;;5.58;73.32;99472.09;5129643;27;42914;-74
2021/04/12 05:34:09;;;;;;;5.50;4.97;;;;;;;5.61;73.41;99482.53;5112233;27;38904;-73
2021/04/12 05:37:04;;;;;;;6.57;5.30;;;;;;;5.68;73.20;99488.47;5129790;27;41710;-74
2021/04/12 05:39:54;;;;;;;5.40;4.90;;;;;;;5.73;72.96;99484.75;5089234;28;43471;-74
2021/04/12 05:42:30;;;;;;;6.03;5.43;;;;;;;5.79;72.77;99496.84;5090145;28;42112;-73
2021/04/12 05:45:10;;;;;;;6.77;5.67;;;;;;;5.85;72.65;99496.63;5123074;27;39973;-74
2021/04/12 05:48:16;;;;;;;6.23;4.93;;;;;;;5.92;72.65;99498.19;5089594;28;42490;-74
2021/04/12 05:51:14;;;;;;;5.90;5.00;;;;;;;5.97;72.73;99512.03;5113975;27;42824;-74
2021/04/12 05:54:02;;;;;;;7.13;5.37;;;;;;;5.95;72.55;99519.09;5108863;27;42035;-74
2021/04/12 05:56:39;;;;;;;6.97;6.27;;;;;;;6.00;72.56;99517.19;5087520;28;40097;-74
2021/04/12 05:59:23;;;;;;;6.77;5.40;;;;;;;6.06;72.36;99516.97;5109606;27;41671;-74
2021/04/12 06:02:13;;;;;;;9.77;8.77;;;;;;;6.18;72.17;99531.50;5107200;28;43407;-74
2021/04/12 06:04:49;;;;;;;9.53;7.17;;;;;;;6.26;72.15;99523.34;5109406;27;42228;-74
2021/04/12 06:07:51;;;;;;;7.33;5.63;;;;;;;6.42;71.98;99532.44;5101920;28;39513;-74
2021/04/12 06:10:44;;;;;;;6.77;5.03;;;;;;;6.47;71.20;99520.81;5106967;28;41643;-73
2021/04/12 06:13:45;;;;;;;5.00;4.60;;;;;;;6.72;70.30;99533.09;5107833;27;43346;-71
2021/04/12 06:16:26;;;;;;;5.20;4.50;;;;;;;6.87;69.63;99537.81;5086844;28;43050;-72
2021/04/12 06:19:18;;;;;;;6.47;4.70;;;;;;;6.90;68.93;99529.81;5085170;28;39289;-72
2021/04/12 06:22:10;;;;;;;5.53;3.87;;;;;;;6.90;68.61;99531.59;5088642;28;41601;-72
2021/04/12 06:25:19;;;;;;;4.80;4.20;;;;;;;6.88;68.51;99528.16;5110073;27;43314;-72
2021/04/12 06:28:24;;;;;;;4.40;3.93;;;;;;;6.83;68.22;99525.66;5095708;27;42676;-72
2021/04/12 06:31:24;;;;;;;4.10;3.50;;;;;;;6.84;67.54;99528.25;5108595;27;40663;-72
2021/04/12 06:34:20;;;;;;;3.47;3.03;;;;;;;6.84;67.12;99533.50;5107343;28;41566;-72
2021/04/12 06:37:01;;;;;;;4.53;3.10;;;;;;;6.84;66.00;99548.44;5107601;28;42322;-73
2021/04/12 06:39:43;;;;;;;3.70;2.73;;;;;;;6.85;65.80;99556.28;5106255;27;42678;-73
2021/04/12 06:42:53;;;;;;;3.83;3.10;;;;;;;6.83;66.02;99547.59;5106237;28;40960;-72
2021/04/12 06:45:50;;;;;;;5.00;2.90;;;;;;;6.82;65.40;99553.75;5090690;28;41336;-73
2021/04/12 06:49:09;;;;;;;4.33;2.83;;;;;;;6.85;63.92;99566.81;5082482;28;42392;-72
2021/04/12 06:52:19;;;;;;;3.97;2.80;;;;;;;6.94;63.31;99580.56;5108288;28;41944;-73
2021/04/12 06:55:11;;;;;;;6.10;2.60;;;;;;;7.07;62.76;99584.47;5096450;28;40591;-72
2021/04/12 06:58:23;;;;;;;5.37;4.27;;;;;;;7.30;62.40;99589.75;5107859;27;41537;-73
2021/04/12 07:01:29;;;;;;;4.33;2.60;;;;;;;7.67;61.59;99590.97;5059260;28;42262;-73
2021/04/12 07:04:14;;;;;;;3.57;2.53;;;;;;;7.94;59.80;99613.63;5106620;28;41929;-73
2021/04/12 07:07:01;;;;;;;3.67;2.67;;;;;;;8.06;59.33;99622.81;5109677;27;39632;-72
2021/04/12 07:09:58;;;;;;;3.00;2.23;;;;;;;8.16;58.12;99640.84;5108938;27;42425;-73
2021/04/12 07:13:14;;;;;;;3.57;2.57;;;;;;;8.47;58.54;99635.25;5107295;28;41841;-73
2021/04/12 07:16:23;;;;;;;2.83;2.23;;;;;;;8.51;55.66;99665.03;5107361;28;41995;-72
2021/04/12 07:19:36;;;;;;;2.87;2.00;;;;;;;8.59;56.68;99660.28;5069502;28;40190;-72
2021/04/12 07:22:39;;;;;;;2.30;1.73;;;;;;;8.79;55.25;99668.19;5090043;28;40625;-75
2021/04/12 07:25:43;;;;;;;2.37;1.90;;;;;;;8.86;55.60;99674.97;5106394;28;42656;-72
2021/04/12 07:28:56;;;;;;;3.37;2.20;;;;;;;9.02;55.94;99679.59;5095624;27;42167;-74
2021/04/12 07:32:19;;;;;;;3.00;1.93;;;;;;;9.16;55.30;99687.75;5108381;27;39728;-73
2021/04/12 07:35:07;;;;;;;2.67;2.23;;;;;;;9.26;54.10;99697.03;5071573;27;41651;-72
2021/04/12 07:38:09;;;;;;;6.57;4.87;;;;;;;9.29;54.10;99702.16;5105639;28;43189;-73
2021/04/12 07:41:16;;;;;;;4.83;2.30;;;;;;;9.28;53.81;99703.09;5108271;27;43425;-72
2021/04/12 07:44:24;;;;;;;3.47;2.30;;;;;;;9.32;53.18;99710.81;5107987;27;40966;-72
2021/04/12 07:47:31;;;;;;;4.07;2.10;;;;;;;9.30;52.34;99725.03;5107574;27;41355;-72
2021/04/12 07:50:51;;;;;;;2.13;1.70;;;;;;;9.20;53.96;99721.06;5107006;27;42317;-72
2021/04/12 07:53:57;;;;;;;3.07;2.10;;;;;;;9.09;53.56;99732.09;5090047;28;42440;-73
2021/04/12 07:56:55;;;;;;;3.00;2.17;;;;;;;8.94;51.10;99752.09;5074574;28;39854;-73
2021/04/12 08:00:17;;;;;;;3.53;1.80;;;;;;;8.99;52.13;99746.63;5091002;28;42281;-73
2021/04/12 08:03:03;;;;;;;3.30;2.00;;;;;;;9.08;52.46;99745.38;5131044;27;42770;-72
2021/04/12 08:06:10;;;;;;;2.77;2.20;;;;;;;9.21;53.36;99736.00;5109186;28;42172;-71
2021/04/12 08:09:20;;;;;;;3.73;1.80;;;;;;;9.17;51.66;99742.34;5092880;28;39168;-72
2021/04/12 08:12:19;;;;;;;2.40;1.63;;;;;;;9.13;51.52;99751.34;5111072;27;42449;-72
2021/04/12 08:15:37;;;;;;;4.23;2.30;;;;;;;8.99;51.08;99755.41;5111019;27;42444;-72
2021/04/12 08:18:30;;;;;;;2.47;1.60;;;;;;;8.94;51.18;99762.66;5071421;28;41494;-72
2021/04/12 08:21:27;;;;;;;2.10;1.63;;;;;;;8.97;51.84;99759.91;5089879;28;39834;-72
2021/04/12 08:24:42;;;;;;;2.90;1.70;;;;;;;9.07;51.70;99772.72;5093421;27;42132;-73
2021/04/12 08:27:55;;;;;;;5.70;4.40;;;;;;;9.19;51.36;99782.78;5110425;27;43437;-73
2021/04/12 08:30:45;;;;;;;6.03;3.67;;;;;;;9.36;51.66;99775.00;5111150;27;41895;-71
2021/04/12 08:33:53;;;;;;;2.83;1.60;;;;;;;9.53;50.36;99798.91;5111089;27;39679;-73
2021/04/12 08:37:04;;;;;;;2.17;1.97;;;;;;;9.65;49.88;99790.44;5110251;27;42334;-74
2021/04/12 08:39:49;;;;;;;2.73;1.70;;;;;;;9.82;50.02;99788.84;5110649;27;42704;-71
2021/04/12 08:42:51;;;;;;;4.23;1.87;;;;;;;9.95;50.44;99790.03;5125400;27;42923;-73
2021/04/12 08:45:51;;;;;;;2.20;1.90;;;;;;;10.08;50.42;99791.19;5080296;28;39929;-75
2021/04/12 08:48:53;;;;;;;3.47;2.00;;;;;;;10.18;49.46;99792.50;5110326;27;42153;-74
2021/04/12 08:51:57;;;;;;;2.73;1.90;;;;;;;10.34;47.72;99797.97;5077485;28;42640;-73
2021/04/12 08:54:57;;;;;;;3.60;1.80;;;;;;;10.62;47.50;99801.03;5110049;27;42958;-73
2021/04/12 08:57:52;;;;;;;3.20;1.70;;;;;;;10.93;46.76;99812.81;5106303;28;39878;-70
2021/04/12 09:00:44;;;;;;;2.63;1.87;;;;;;;11.37;46.92;99811.47;5092637;28;41689;-74
2021/04/12 09:03:37;;;;;;;4.73;1.90;;;;;;;12.13;44.49;99827.88;5109032;28;41911;-75
2021/04/12 09:06:32;;;;;;;8.30;2.37;;;;;;;13.08;42.60;99842.97;5108918;28;42695;-73
2021/04/12 09:09:14;;;;;;;2.53;2.00;;;;;;;13.77;42.19;99847.81;5109461;27;39495;-74
2021/04/12 09:12:35;;;;;;;5.20;2.07;;;;;;;14.07;41.20;99854.91;5110005;28;40767;-75
2021/04/12 09:15:31;;;;;;;3.10;1.77;;;;;;;14.42;39.75;99852.75;5046654;28;43529;-72
2021/04/12 09:18:38;;;;;;;3.17;1.90;;;;;;;14.54;39.85;99858.19;5104080;28;42225;-75
2021/04/12 09:21:28;;;;;;;1.77;1.50;;;;;;;14.53;40.38;99848.47;5108343;27;39723;-75
2021/04/12 09:24:25;;;;;;;2.43;1.80;;;;;;;14.42;38.71;99871.41;5052701;28;41625;-75
2021/04/12 09:27:26;;;;;;;2.33;1.33;;;;;;;14.26;38.80;99868.81;5109656;27;42680;-75
2021/04/12 09:30:16;;;;;;;3.00;1.70;;;;;;;14.00;39.21;99871.25;5108076;28;42440;-72
2021/04/12 09:33:10;;;;;;;2.27;1.63;;;;;;;13.80;41.30;99858.28;5109676;27;40489;-73
2021/04/12 09:36:11;;;;;;;3.73;2.00;;;;;;;13.60;40.79;99856.78;5091724;28;40803;-74
2021/04/12 09:39:17;;;;;;;2.20;1.90;;;;;;;13.32;41.44;99843.41;5074696;27;43061;-74
2021/04/12 09:42:15;;;;;;;2.00;1.57;;;;;;;13.14;39.93;99861.25;5091734;28;41466;-75
2021/04/12 09:45:20;;;;;;;5.43;1.70;;;;;;;13.04;40.45;99872.47;5110269;27;40507;-73
2021/04/12 09:48:28;;;;;;;2.77;2.10;;;;;;;13.14;40.38;99869.25;5108468;27;42458;-73
2021/04/12 09:51:32;;;;;;;2.87;1.63;;;;;;;13.57;39.84;99888.91;5107442;28;43231;-72
2021/04/12 09:54:51;;;;;;;1.70;1.50;;;;;;;13.85;39.23;99893.47;5108081;27;42820;-72
2021/04/12 09:57:56;;;;;;;2.70;1.50;;;;;;;14.25;39.41;99877.75;5071218;28;40005;-73
2021/04/12 10:00:46;;;;;;;2.07;1.40;;;;;;;14.51;37.34;99902.81;5090481;28;41680;-73
2021/04/12 10:03:47;;;;;;;4.60;2.33;;;;;;;14.85;36.53;99920.22;5090935;28;41721;-73
2021/04/12 10:06:35;;;;;;;2.07;1.23;;;;;;;14.80;36.93;99922.34;5110406;27;42226;-73
2021/04/12 10:09:36;;;;;;;3.40;1.37;;;;;;;14.58;36.73;99915.69;5107856;28;39889;-73
2021/04/12 10:12:20;;;;;;;2.37;1.30;;;;;;;14.56;38.67;99906.94;5086827;28;40966;-73
2021/04/12 10:14:52;;;;;;;1.90;1.20;;;;;;;14.58;36.75;99925.50;5087578;28;42017;-72
2021/04/12 10:17:25;;;;;;;2.97;1.00;;;;;;;14.71;36.39;99921.94;5092639;28;42737;-72
2021/04/12 10:19:57;;;;;;;2.53;1.07;;;;;;;14.96;35.99;99915.09;5109043;27;40045;-73
2021/04/12 10:22:42;;;;;;;3.97;1.40;;;;;;;15.15;35.26;99931.63;5109124;27;42281;-73
2021/04/12 10:25:31;;;;;;;3.63;1.50;;;;;;;14.97;35.17;99943.47;5108487;27;43297;-74
2021/04/12 10:28:12;;;;;;;4.70;1.50;;;;;;;14.59;35.78;99935.19;5108490;27;41851;-72
2021/04/12 10:30:46;;;;;;;2.63;1.17;;;;;;;14.40;36.94;99922.16;5108685;27;40668;-72
2021/04/12 10:33:25;;;;;;;1.83;1.03;;;;;;;14.79;36.23;99928.63;5108418;27;42230;-71
2021/04/12 10:35:59;;;;;;;2.07;1.20;;;;;;;15.32;35.68;99928.75;5108902;27;43448;-74
2021/04/12 10:38:29;;;;;;;2.73;1.10;;;;;;;15.39;35.22;99930.03;5108071;27;42136;-73
2021/04/12 10:41:06;;;;;;;1.53;0.90;;;;;;;15.40;34.63;99941.59;5107831;28;40236;-74
2021/04/12 10:43:42;;;;;;;4.50;1.00;;;;;;;15.42;34.38;99935.19;5107996;27;42184;-74
2021/04/12 10:46:17;;;;;;;2.90;0.90;;;;;;;15.38;34.98;99940.81;5108224;27;43411;-73
2021/04/12 10:48:51;;;;;;;2.60;1.23;;;;;;;15.22;34.83;99930.28;5124263;27;41287;-74
2021/04/12 10:51:31;;;;;;;1.00;0.80;;;;;;;14.97;33.67;99948.78;5107047;28;38644;-73
2021/04/12 10:54:40;;;;;;;3.13;1.37;;;;;;;14.70;35.19;99933.59;5108037;27;41426;-72
2021/04/12 10:57:22;;;;;;;2.90;1.23;;;;;;;14.30;35.66;99937.81;5107361;27;42476;-72
2021/04/12 11:00:20;;;;;;;4.50;1.60;;;;;;;14.06;36.27;99939.28;5107443;27;43102;-74
2021/04/12 11:02:57;;;;;;;4.00;1.40;;;;;;;13.98;36.72;99925.53;5089746;27;39575;-74
2021/04/12 11:05:27;;;;;;;2.67;1.20;;;;;;;14.07;36.93;99929.50;5106832;28;42522;-72
2021/04/12 11:08:07;;;;;;;1.27;0.87;;;;;;;14.10;36.74;99919.47;5107049;27;43041;-73
2021/04/12 11:10:46;;;;;;;2.50;1.30;;;;;;;14.33;35.44;99939.44;5108826;27;42898;-73
2021/04/12 11:13:23;;;;;;;2.60;1.10;;;;;;;14.56;35.98;99928.25;5108087;27;39565;-73
2021/04/12 11:16:11;;;;;;;1.67;0.80;;;;;;;14.99;35.22;99936.22;5108008;27;41420;-73
2021/04/12 11:19:06;;;;;;;3.30;0.97;;;;;;;15.69;33.51;99953.06;5108127;27;43505;-74
2021/04/12 11:21:39;;;;;;;1.20;0.70;;;;;;;16.26;32.24;99963.47;5106662;28;42521;-74
2021/04/12 11:24:20;;;;;;;1.63;1.10;;;;;;;16.42;31.32;99969.47;5106753;28;38943;-73
2021/04/12 11:27:21;;;;;;;1.87;1.27;;;;;;;16.53;30.97;99972.28;5112210;27;41634;-74
2021/04/12 11:30:03;;;;;;;1.40;0.77;;;;;;;17.33;31.23;99952.28;5112125;27;42551;-75
2021/04/12 11:32:46;;;;;;;1.83;0.77;;;;;;;17.76;30.80;99962.56;5109432;28;41596;-73
2021/04/12 11:35:20;;;;;;;2.60;1.00;;;;;;;17.79;31.02;99967.69;5111419;27;40455;-74
2021/04/12 11:37:59;;;;;;;1.60;0.90;;;;;;;17.64;29.56;99982.22;5109912;28;42206;-74
2021/04/12 11:40:30;;;;;;;1.63;0.80;;;;;;;17.28;30.65;99980.38;5093249;28;42141;-73
2021/04/12 11:43:02;;;;;;;1.50;1.07;;;;;;;16.96;29.94;99979.97;5111492;27;41668;-73
2021/04/12 11:45:36;;;;;;;2.47;0.80;;;;;;;16.83;30.72;99975.50;5111172;27;40747;-74
2021/04/12 11:48:09;;;;;;;2.23;0.87;;;;;;;17.00;30.99;99954.72;5111243;27;41548;-73
2021/04/12 11:50:42;;;;;;;2.10;0.90;;;;;;;17.96;29.82;99967.25;5093372;28;42702;-74
2021/04/12 11:53:18;;;;;;;0.67;0.50;;;;;;;18.69;28.66;99980.44;5110691;27;42881;-74
2021/04/12 11:55:57;;;;;;;2.53;0.80;;;;;;;18.54;27.27;100005.75;5109264;28;38934;-75
2021/04/12 11:58:28;;;;;;;10.27;8.13;;;;;;;17.87;28.28;99997.44;5110293;27;42433;-74
2021/04/12 12:01:05;;;;;;;2.40;1.07;;;;;;;17.17;28.97;99989.19;5110499;27;43175;-74
2021/04/12 12:03:47;;;;;;;2.73;0.80;;;;;;;16.51;28.57;100000.94;5106363;28;43102;-72
2021/04/12 12:06:29;;;;;;;1.67;0.80;;;;;;;15.98;29.72;99999.19;5112184;27;39907;-73
2021/04/12 12:09:02;;;;;;;1.57;0.80;;;;;;;15.84;30.61;99989.44;5110824;27;42097;-74
2021/04/12 12:11:40;;;;;;;1.07;0.70;;;;;;;15.87;30.96;99988.38;5111628;27;42607;-73
2021/04/12 12:14:19;;;;;;;1.00;0.60;;;;;;;16.30;30.45;99975.66;5108907;28;41572;-73
2021/04/12 12:16:48;;;;;;;1.20;0.53;;;;;;;17.89;30.01;99982.09;5109362;28;39887;-74
2021/04/12 12:19:24;;;;;;;0.97;0.60;;;;;;;19.84;27.79;99993.56;5105235;28;41606;-74
2021/04/12 12:21:57;;;;;;;1.17;0.70;;;;;;;20.29;26.06;100013.06;5143496;27;43301;-73
2021/04/12 12:24:29;;;;;;;0.83;0.70;;;;;;;21.66;25.45;100012.72;5109718;27;42901;-74
2021/04/12 12:27:05;;;;;;;2.23;0.80;;;;;;;22.58;24.83;100014.09;5110944;27;40351;-74
2021/04/12 12:29:38;;;;;;;1.83;0.80;;;;;;;23.49;22.31;100025.25;5110545;27;42237;-73
2021/04/12 12:32:19;;;;;;;1.90;0.90;;;;;;;24.17;20.41;100036.53;5108379;28;42630;-72
2021/04/12 12:35:06;;;;;;;0.80;0.80;;;;;;;25.34;21.12;100022.59;5110761;27;42024;-72
2021/04/12 12:37:49;;;;;;;2.17;1.07;;;;;;;25.86;21.14;100016.16;5107246;28;40403;-72
2021/04/12 12:40:20;;;;;;;1.27;0.80;;;;;;;26.84;19.42;100021.53;5090263;28;41343;-74
2021/04/12 12:42:52;;;;;;;1.53;0.90;;;;;;;26.76;18.90;100010.69;5122048;27;42763;-73
2021/04/12 12:45:28;;;;;;;2.40;0.80;;;;;;;25.81;19.79;100027.53;5103187;28;42149;-73
2021/04/12 12:47:58;;;;;;;1.53;1.00;;;;;;;24.45;21.09;100008.41;5142652;27;40611;-72
2021/04/12 12:50:32;;;;;;;2.20;0.90;;;;;;;23.22;21.16;100024.22;5108710;28;41510;-73
2021/04/12 12:53:06;;;;;;;1.13;0.83;;;;;;;22.24;21.97;100010.16;5142855;27;43202;-70
2021/04/12 12:55:47;;;;;;;1.97;0.70;;;;;;;21.54;23.50;99994.09;5105764;28;42924;-73
2021/04/12 12:58:21;;;;;;;1.73;0.80;;;;;;;20.83;23.66;99998.59;5109969;27;39994;-74
2021/04/12 13:00:51;;;;;;;4.23;0.90;;;;;;;20.21;24.32;99992.19;5106916;28;41897;-73
2021/04/12 13:03:28;;;;;;;1.53;0.70;;;;;;;19.94;24.51;99983.75;5110394;27;43343;-74
2021/04/12 13:05:57;;;;;;;2.43;0.80;;;;;;;19.87;22.99;100004.06;5109634;27;41912;-75
2021/04/12 13:08:27;;;;;;;2.20;0.83;;;;;;;21.33;23.48;99996.88;5108679;28;40310;-72
2021/04/12 13:10:55;;;;;;;0.90;0.70;;;;;;;23.46;21.30;100009.31;5088006;28;43505;-74
2021/04/12 13:13:27;;;;;;;1.57;0.80;;;;;;;24.97;19.66;100013.91;5091729;28;41867;-74
2021/04/12 13:15:58;;;;;;;0.90;0.73;;;;;;;25.16;19.23;100024.50;5087458;28;41601;-73
2021/04/12 13:18:29;;;;;;;1.53;0.80;;;;;;;26.11;19.89;100015.22;5101860;28;41631;-72
2021/04/12 13:21:06;;;;;;;0.93;0.70;;;;;;;27.30;18.46;100026.44;5108106;28;40723;-72